createdAt,value
2019-02-23T00:00:13.451Z,0.00
2019-02-23T00:01:13.446Z,0.00
2019-02-23T00:02:13.437Z,0.00
2019-02-23T00:03:13.432Z,0.00
2019-02-23T00:04:13.424Z,0.00
2019-02-23T00:05:13.417Z,0.00
2019-02-23T00:06:13.410Z,0.00
2019-02-23T00:07:13.405Z,0.00
2019-02-23T00:08:13.398Z,0.00
2019-02-23T00:09:13.390Z,0.00
2019-02-23T00:10:13.384Z,0.00
2019-02-23T00:11:13.377Z,0.00
2019-02-23T00:12:13.372Z,0.00
2019-02-23T00:13:13.364Z,0.00
2019-02-23T00:14:13.358Z,0.00
2019-02-23T00:15:13.350Z,0.00
2019-02-23T00:16:13.344Z,0.00
2019-02-23T00:17:13.338Z,0.00
2019-02-23T00:18:13.335Z,0.00
2019-02-23T00:19:24.142Z,0.00
2019-02-23T00:20:13.318Z,0.00
2019-02-23T00:21:13.311Z,0.00
2019-02-23T00:22:13.303Z,0.00
2019-02-23T00:23:13.296Z,0.00
2019-02-23T00:24:13.290Z,0.00
2019-02-23T00:25:13.283Z,0.00
2019-02-23T00:26:13.277Z,0.00
2019-02-23T00:27:13.272Z,0.00
2019-02-23T00:28:13.263Z,0.00
2019-02-23T00:29:13.257Z,0.00
2019-02-23T00:30:13.251Z,0.00
2019-02-23T00:31:13.245Z,0.00
2019-02-23T00:32:13.236Z,0.00
2019-02-23T00:33:13.229Z,0.00
2019-02-23T00:34:13.265Z,0.00
2019-02-23T00:35:13.216Z,0.00
2019-02-23T00:36:13.208Z,0.00
2019-02-23T00:37:13.202Z,0.00
2019-02-23T00:38:13.195Z,0.00
2019-02-23T00:39:13.189Z,0.00
2019-02-23T00:40:13.183Z,0.00
2019-02-23T00:41:13.174Z,0.00
2019-02-23T00:42:13.169Z,0.00
2019-02-23T00:43:13.161Z,0.00
2019-02-23T00:44:13.154Z,0.00
2019-02-23T00:45:13.148Z,0.00
2019-02-23T00:46:13.142Z,0.00
2019-02-23T00:47:13.135Z,0.00
2019-02-23T00:48:13.127Z,0.00
2019-02-23T00:49:13.120Z,0.00
2019-02-23T00:50:13.114Z,0.00
2019-02-23T00:51:13.108Z,0.00
2019-02-23T00:52:13.100Z,0.00
2019-02-23T00:53:13.095Z,0.00
2019-02-23T00:54:13.086Z,0.00
2019-02-23T00:55:13.081Z,0.00
2019-02-23T00:56:13.073Z,0.00
2019-02-23T00:57:13.065Z,0.00
2019-02-23T00:58:13.058Z,0.00
2019-02-23T00:59:13.053Z,0.00
2019-02-23T01:00:13.044Z,0.00
2019-02-23T01:01:13.039Z,0.00
2019-02-23T01:02:13.035Z,0.00
2019-02-23T01:03:13.025Z,0.00
2019-02-23T01:04:13.018Z,0.00
2019-02-23T01:05:13.011Z,0.00
2019-02-23T01:06:13.005Z,0.00
2019-02-23T01:07:12.999Z,0.00
2019-02-23T01:08:12.990Z,0.00
2019-02-23T01:09:12.985Z,0.00
2019-02-23T01:10:12.977Z,0.00
2019-02-23T01:11:12.970Z,0.00
2019-02-23T01:12:12.961Z,0.00
2019-02-23T01:13:12.955Z,0.00
2019-02-23T01:14:12.950Z,0.00
2019-02-23T01:15:12.941Z,0.00
2019-02-23T01:16:12.934Z,0.00
2019-02-23T01:17:12.927Z,0.00
2019-02-23T01:18:12.921Z,0.00
2019-02-23T01:19:12.914Z,0.00
2019-02-23T01:20:12.906Z,0.00
2019-02-23T01:21:12.900Z,0.00
2019-02-23T01:22:12.897Z,0.00
2019-02-23T01:23:12.887Z,0.00
2019-02-23T01:24:12.878Z,0.00
2019-02-23T01:25:12.872Z,0.00
2019-02-23T01:26:12.865Z,0.00
2019-02-23T01:27:12.858Z,0.00
2019-02-23T01:28:12.850Z,0.00
2019-02-23T01:29:12.846Z,0.00
2019-02-23T01:30:12.906Z,0.00
2019-02-23T01:31:12.830Z,0.00
2019-02-23T01:32:12.822Z,0.00
2019-02-23T01:33:12.815Z,0.00
2019-02-23T01:34:12.808Z,0.00
2019-02-23T01:35:12.802Z,0.00
2019-02-23T01:36:12.795Z,0.00
2019-02-23T01:37:12.789Z,0.00
2019-02-23T01:38:12.781Z,0.00
2019-02-23T01:39:12.776Z,0.00
2019-02-23T01:40:12.772Z,0.00
2019-02-23T01:41:12.761Z,0.00
2019-02-23T01:42:12.754Z,0.00
2019-02-23T01:43:12.748Z,0.00
2019-02-23T01:44:12.738Z,0.00
2019-02-23T01:45:12.734Z,0.00
2019-02-23T01:46:12.724Z,0.00
2019-02-23T01:47:12.717Z,0.00
2019-02-23T01:48:12.710Z,0.00
2019-02-23T01:49:12.703Z,0.00
2019-02-23T01:50:12.697Z,0.00
2019-02-23T01:51:12.690Z,0.00
2019-02-23T01:52:12.682Z,0.00
2019-02-23T01:53:12.676Z,0.00
2019-02-23T01:54:12.667Z,0.00
2019-02-23T01:55:12.662Z,0.00
2019-02-23T01:56:12.656Z,0.00
2019-02-23T01:57:12.647Z,0.00
2019-02-23T01:58:12.640Z,0.00
2019-02-23T01:59:12.634Z,0.00
2019-02-23T02:00:12.625Z,0.00
2019-02-23T02:01:12.617Z,0.00
2019-02-23T02:02:12.611Z,0.00
2019-02-23T02:03:12.611Z,0.00
2019-02-23T02:04:12.597Z,0.00
2019-02-23T02:05:12.588Z,0.00
2019-02-23T02:06:12.584Z,0.00
2019-02-23T02:07:12.576Z,0.00
2019-02-23T02:08:12.568Z,0.00
2019-02-23T02:09:12.562Z,0.00
2019-02-23T02:10:12.555Z,0.00
2019-02-23T02:11:12.547Z,0.00
2019-02-23T02:12:12.538Z,0.00
2019-02-23T02:13:12.533Z,0.00
2019-02-23T02:14:12.524Z,0.00
2019-02-23T02:15:12.517Z,0.00
2019-02-23T02:16:12.516Z,0.00
2019-02-23T02:17:12.509Z,0.00
2019-02-23T02:18:12.497Z,0.00
2019-02-23T02:19:12.490Z,0.00
2019-02-23T02:20:12.482Z,0.00
2019-02-23T02:21:12.475Z,0.00
2019-02-23T02:22:12.468Z,0.00
2019-02-23T02:23:12.462Z,0.00
2019-02-23T02:24:12.453Z,0.00
2019-02-23T02:25:12.447Z,0.00
2019-02-23T02:26:12.439Z,0.00
2019-02-23T02:27:12.433Z,0.00
2019-02-23T02:28:12.424Z,0.00
2019-02-23T02:29:12.418Z,0.00
2019-02-23T02:30:12.524Z,0.00
2019-02-23T02:31:12.403Z,0.00
2019-02-23T02:32:12.396Z,0.00
2019-02-23T02:33:12.388Z,0.00
2019-02-23T02:34:12.383Z,0.00
2019-02-23T02:35:12.376Z,0.00
2019-02-23T02:36:12.367Z,0.00
2019-02-23T02:37:12.359Z,0.00
2019-02-23T02:38:12.353Z,0.00
2019-02-23T02:39:12.345Z,0.00
2019-02-23T02:40:12.340Z,0.00
2019-02-23T02:41:12.331Z,0.00
2019-02-23T02:42:12.323Z,0.00
2019-02-23T02:43:12.317Z,0.00
2019-02-23T02:44:12.307Z,0.00
2019-02-23T02:45:12.300Z,0.00
2019-02-23T02:46:12.293Z,0.00
2019-02-23T02:47:12.288Z,0.00
2019-02-23T02:48:12.279Z,0.00
2019-02-23T02:49:12.271Z,0.00
2019-02-23T02:50:23.803Z,0.00
2019-02-23T02:51:12.261Z,0.00
2019-02-23T02:52:12.251Z,0.00
2019-02-23T02:53:12.242Z,0.00
2019-02-23T02:54:12.235Z,0.00
2019-02-23T02:55:12.234Z,0.00
2019-02-23T02:56:12.219Z,0.00
2019-02-23T02:57:12.213Z,0.00
2019-02-23T02:58:12.206Z,0.00
2019-02-23T02:59:12.199Z,0.00
2019-02-23T03:00:12.194Z,0.00
2019-02-23T03:01:12.189Z,0.00
2019-02-23T03:02:12.179Z,0.00
2019-02-23T03:03:12.179Z,0.00
2019-02-23T03:04:12.163Z,0.00
2019-02-23T03:05:12.156Z,0.00
2019-02-23T03:06:12.147Z,0.00
2019-02-23T03:07:12.140Z,0.00
2019-02-23T03:08:12.134Z,0.00
2019-02-23T03:09:12.127Z,0.00
2019-02-23T03:10:12.118Z,0.00
2019-02-23T03:11:12.110Z,0.00
2019-02-23T03:12:12.103Z,0.00
2019-02-23T03:13:12.096Z,0.00
2019-02-23T03:14:12.183Z,0.00
2019-02-23T03:15:12.081Z,0.00
2019-02-23T03:16:12.075Z,0.00
2019-02-23T03:17:12.068Z,0.00
2019-02-23T03:18:12.059Z,0.00
2019-02-23T03:19:12.053Z,0.00
2019-02-23T03:20:12.043Z,0.00
2019-02-23T03:21:12.037Z,0.00
2019-02-23T03:22:12.032Z,0.00
2019-02-23T03:23:12.023Z,0.00
2019-02-23T03:24:12.015Z,0.00
2019-02-23T03:25:12.008Z,0.00
2019-02-23T03:26:12.002Z,0.00
2019-02-23T03:27:11.994Z,0.00
2019-02-23T03:28:11.990Z,0.00
2019-02-23T03:29:11.984Z,0.00
2019-02-23T03:30:12.069Z,0.00
2019-02-23T03:31:11.965Z,0.00
2019-02-23T03:32:11.959Z,0.00
2019-02-23T03:33:11.949Z,0.00
2019-02-23T03:34:11.946Z,0.00
2019-02-23T03:35:11.939Z,0.00
2019-02-23T03:36:11.926Z,0.00
2019-02-23T03:37:11.919Z,0.00
2019-02-23T03:38:11.921Z,0.00
2019-02-23T03:39:11.903Z,0.00
2019-02-23T03:40:11.896Z,0.00
2019-02-23T03:41:11.887Z,0.00
2019-02-23T03:42:11.882Z,0.00
2019-02-23T03:43:11.874Z,0.00
2019-02-23T03:44:11.865Z,0.00
2019-02-23T03:45:11.861Z,0.00
2019-02-23T03:46:11.851Z,0.00
2019-02-23T03:47:11.844Z,0.00
2019-02-23T03:48:11.835Z,0.00
2019-02-23T03:49:11.828Z,0.00
2019-02-23T03:50:11.820Z,0.00
2019-02-23T03:51:11.816Z,0.00
2019-02-23T03:52:11.805Z,0.00
2019-02-23T03:53:11.803Z,0.00
2019-02-23T03:54:11.790Z,0.00
2019-02-23T03:55:11.785Z,0.00
2019-02-23T03:56:11.777Z,0.00
2019-02-23T03:57:11.767Z,0.00
2019-02-23T03:58:11.761Z,0.00
2019-02-23T03:59:11.753Z,0.00
2019-02-23T04:00:11.745Z,0.00
2019-02-23T04:01:11.738Z,0.00
2019-02-23T04:02:11.730Z,0.00
2019-02-23T04:03:11.725Z,0.00
2019-02-23T04:04:11.713Z,0.00
2019-02-23T04:05:11.707Z,0.00
2019-02-23T04:06:11.700Z,0.00
2019-02-23T04:07:11.695Z,0.00
2019-02-23T04:08:11.685Z,0.00
2019-02-23T04:09:11.676Z,0.00
2019-02-23T04:10:11.848Z,0.00
2019-02-23T04:11:11.660Z,0.00
2019-02-23T04:12:11.653Z,0.00
2019-02-23T04:13:11.647Z,0.00
2019-02-23T04:14:11.640Z,0.00
2019-02-23T04:15:11.638Z,0.00
2019-02-23T04:16:11.628Z,0.00
2019-02-23T04:17:11.616Z,0.00
2019-02-23T04:18:11.609Z,0.00
2019-02-23T04:19:11.602Z,0.00
2019-02-23T04:20:11.592Z,0.00
2019-02-23T04:21:11.585Z,0.00
2019-02-23T04:22:11.579Z,0.00
2019-02-23T04:23:11.573Z,0.00
2019-02-23T04:24:11.561Z,0.00
2019-02-23T04:25:11.554Z,0.00
2019-02-23T04:26:11.547Z,0.00
2019-02-23T04:27:11.540Z,0.00
2019-02-23T04:28:11.530Z,0.00
2019-02-23T04:29:11.525Z,0.00
2019-02-23T04:30:11.517Z,0.00
2019-02-23T04:31:11.511Z,0.00
2019-02-23T04:32:11.502Z,0.00
2019-02-23T04:33:11.493Z,0.00
2019-02-23T04:34:11.484Z,0.00
2019-02-23T04:35:11.479Z,0.00
2019-02-23T04:36:11.469Z,0.00
2019-02-23T04:37:11.461Z,0.00
2019-02-23T04:38:11.454Z,0.00
2019-02-23T04:39:11.446Z,0.00
2019-02-23T04:40:11.438Z,0.00
2019-02-23T04:41:11.433Z,0.00
2019-02-23T04:42:11.423Z,0.00
2019-02-23T04:43:11.415Z,0.00
2019-02-23T04:44:11.406Z,0.00
2019-02-23T04:45:11.400Z,0.00
2019-02-23T04:46:11.391Z,0.00
2019-02-23T04:47:11.387Z,0.00
2019-02-23T04:48:11.377Z,0.00
2019-02-23T04:49:11.371Z,0.00
2019-02-23T04:50:11.365Z,0.00
2019-02-23T04:51:14.428Z,0.00
2019-02-23T04:52:11.344Z,0.00
2019-02-23T04:53:11.335Z,0.00
2019-02-23T04:54:11.334Z,0.00
2019-02-23T04:55:11.321Z,0.00
2019-02-23T04:56:11.313Z,0.00
2019-02-23T04:57:11.306Z,0.00
2019-02-23T04:58:11.297Z,0.00
2019-02-23T04:59:11.291Z,0.00
2019-02-23T05:00:11.284Z,0.00
2019-02-23T05:01:11.276Z,0.00
2019-02-23T05:02:11.267Z,0.00
2019-02-23T05:03:11.260Z,0.00
2019-02-23T05:04:11.251Z,0.00
2019-02-23T05:05:11.243Z,0.00
2019-02-23T05:06:11.236Z,0.00
2019-02-23T05:07:11.228Z,0.00
2019-02-23T05:08:11.218Z,0.00
2019-02-23T05:09:11.213Z,0.00
2019-02-23T05:10:11.203Z,0.00
2019-02-23T05:11:11.197Z,0.00
2019-02-23T05:12:11.196Z,0.00
2019-02-23T05:13:11.182Z,0.00
2019-02-23T05:14:11.174Z,0.00
2019-02-23T05:15:11.166Z,0.00
2019-02-23T05:16:11.157Z,0.00
2019-02-23T05:17:11.149Z,0.00
2019-02-23T05:18:11.142Z,0.00
2019-02-23T05:19:11.134Z,0.00
2019-02-23T05:20:11.127Z,0.00
2019-02-23T05:21:11.124Z,0.00
2019-02-23T05:22:11.109Z,0.00
2019-02-23T05:23:11.101Z,0.00
2019-02-23T05:24:11.095Z,0.00
2019-02-23T05:25:11.087Z,0.00
2019-02-23T05:26:11.079Z,0.00
2019-02-23T05:27:11.146Z,0.00
2019-02-23T05:28:11.062Z,0.00
2019-02-23T05:29:11.054Z,0.00
2019-02-23T05:30:11.048Z,0.00
2019-02-23T05:31:11.040Z,0.00
2019-02-23T05:32:11.031Z,0.00
2019-02-23T05:33:11.024Z,0.00
2019-02-23T05:34:11.017Z,0.00
2019-02-23T05:35:11.015Z,0.00
2019-02-23T05:36:10.999Z,0.00
2019-02-23T05:37:10.992Z,0.00
2019-02-23T05:38:10.984Z,0.00
2019-02-23T05:39:10.977Z,0.00
2019-02-23T05:40:10.971Z,0.00
2019-02-23T05:41:10.962Z,0.00
2019-02-23T05:42:10.956Z,0.00
2019-02-23T05:43:10.949Z,0.00
2019-02-23T05:44:10.940Z,0.00
2019-02-23T05:45:10.932Z,0.00
2019-02-23T05:46:10.922Z,0.00
2019-02-23T05:47:10.915Z,0.00
2019-02-23T05:48:10.907Z,0.00
2019-02-23T05:49:10.898Z,0.00
2019-02-23T05:50:10.891Z,0.00
2019-02-23T05:51:10.882Z,0.00
2019-02-23T05:52:10.875Z,0.00
2019-02-23T05:53:10.869Z,0.00
2019-02-23T05:54:10.860Z,0.00
2019-02-23T05:55:10.856Z,0.00
2019-02-23T05:56:15.172Z,0.00
2019-02-23T05:57:10.835Z,0.00
2019-02-23T05:58:10.831Z,0.00
2019-02-23T05:59:10.820Z,4.00
2019-02-23T06:00:10.813Z,4.00
2019-02-23T06:01:10.805Z,0.00
2019-02-23T06:02:10.798Z,0.00
2019-02-23T06:03:10.789Z,4.00
2019-02-23T06:04:10.779Z,4.00
2019-02-23T06:05:10.771Z,4.00
2019-02-23T06:06:10.766Z,4.00
2019-02-23T06:07:10.757Z,4.00
2019-02-23T06:08:10.750Z,8.00
2019-02-23T06:09:10.742Z,8.00
2019-02-23T06:10:10.735Z,8.00
2019-02-23T06:11:10.726Z,12.00
2019-02-23T06:12:10.720Z,12.00
2019-02-23T06:13:10.709Z,16.00
2019-02-23T06:14:10.702Z,20.00
2019-02-23T06:15:10.697Z,20.00
2019-02-23T06:16:10.687Z,28.00
2019-02-23T06:17:10.680Z,28.00
2019-02-23T06:18:10.671Z,36.00
2019-02-23T06:19:10.664Z,40.00
2019-02-23T06:20:10.657Z,44.00
2019-02-23T06:21:10.646Z,48.00
2019-02-23T06:22:10.637Z,56.00
2019-02-23T06:23:10.633Z,60.00
2019-02-23T06:24:10.622Z,68.00
2019-02-23T06:25:10.616Z,72.00
2019-02-23T06:26:10.608Z,80.00
2019-02-23T06:27:10.599Z,92.00
2019-02-23T06:28:10.595Z,96.00
2019-02-23T06:29:10.583Z,108.00
2019-02-23T06:30:10.575Z,112.00
2019-02-23T06:31:10.566Z,128.00
2019-02-23T06:32:10.560Z,136.00
2019-02-23T06:33:10.552Z,148.00
2019-02-23T06:34:16.148Z,164.00
2019-02-23T06:35:10.538Z,176.00
2019-02-23T06:36:10.528Z,192.00
2019-02-23T06:37:10.526Z,208.00
2019-02-23T06:38:10.511Z,228.00
2019-02-23T06:39:10.501Z,252.00
2019-02-23T06:40:10.503Z,272.00
2019-02-23T06:41:10.485Z,292.00
2019-02-23T06:42:10.479Z,316.00
2019-02-23T06:43:10.471Z,340.00
2019-02-23T06:44:10.461Z,368.00
2019-02-23T06:45:10.458Z,396.00
2019-02-23T06:46:10.445Z,424.00
2019-02-23T06:47:10.440Z,452.00
2019-02-23T06:48:10.437Z,480.00
2019-02-23T06:49:10.421Z,508.00
2019-02-23T06:50:10.415Z,536.00
2019-02-23T06:51:10.408Z,572.00
2019-02-23T06:52:10.396Z,596.00
2019-02-23T06:53:10.392Z,632.00
2019-02-23T06:54:10.385Z,660.00
2019-02-23T06:55:10.373Z,688.00
2019-02-23T06:56:10.363Z,716.00
2019-02-23T06:57:10.355Z,740.00
2019-02-23T06:58:10.349Z,764.00
2019-02-23T06:59:10.344Z,788.00
2019-02-23T07:00:10.332Z,812.00
2019-02-23T07:01:10.325Z,836.00
2019-02-23T07:02:10.316Z,856.00
2019-02-23T07:03:10.309Z,880.00
2019-02-23T07:04:10.299Z,900.00
2019-02-23T07:05:10.292Z,928.00
2019-02-23T07:06:10.285Z,948.00
2019-02-23T07:07:10.277Z,968.00
2019-02-23T07:08:10.267Z,984.00
2019-02-23T07:09:10.261Z,1008.00
2019-02-23T07:10:10.252Z,1020.00
2019-02-23T07:11:10.243Z,1036.00
2019-02-23T07:12:10.235Z,1052.00
2019-02-23T07:13:10.228Z,1068.00
2019-02-23T07:14:10.220Z,1092.00
2019-02-23T07:15:10.211Z,1108.00
2019-02-23T07:16:10.206Z,1128.00
2019-02-23T07:17:10.193Z,1156.00
2019-02-23T07:18:10.185Z,1176.00
2019-02-23T07:19:10.177Z,1200.00
2019-02-23T07:20:10.170Z,1228.00
2019-02-23T07:21:10.161Z,1256.00
2019-02-23T07:22:15.521Z,1280.00
2019-02-23T07:23:10.146Z,1304.00
2019-02-23T07:24:10.136Z,1324.00
2019-02-23T07:25:10.130Z,1340.00
2019-02-23T07:26:10.120Z,1332.00
2019-02-23T07:27:10.112Z,1344.00
2019-02-23T07:28:10.952Z,1372.00
2019-02-23T07:29:10.099Z,1412.00
2019-02-23T07:30:10.087Z,1456.00
2019-02-23T07:31:10.081Z,1484.00
2019-02-23T07:32:10.071Z,1520.00
2019-02-23T07:33:10.063Z,1552.00
2019-02-23T07:34:10.055Z,1600.00
2019-02-23T07:35:10.051Z,1636.00
2019-02-23T07:36:10.037Z,1672.00
2019-02-23T07:37:10.033Z,1692.00
2019-02-23T07:38:10.022Z,1704.00
2019-02-23T07:39:10.019Z,1704.00
2019-02-23T07:40:10.006Z,1712.00
2019-02-23T07:41:09.999Z,1740.00
2019-02-23T07:42:09.991Z,1796.00
2019-02-23T07:43:09.983Z,1860.00
2019-02-23T07:44:09.974Z,1920.00
2019-02-23T07:45:09.966Z,1960.00
2019-02-23T07:46:09.964Z,2024.00
2019-02-23T07:47:09.950Z,2076.00
2019-02-23T07:48:09.940Z,2112.00
2019-02-23T07:49:09.933Z,2164.00
2019-02-23T07:50:09.925Z,2204.00
2019-02-23T07:51:09.917Z,2180.00
2019-02-23T07:52:09.908Z,2296.00
2019-02-23T07:53:09.901Z,2384.00
2019-02-23T07:54:09.892Z,2424.00
2019-02-23T07:55:09.885Z,2436.00
2019-02-23T07:56:09.875Z,2484.00
2019-02-23T07:57:09.866Z,2504.00
2019-02-23T07:58:09.860Z,2556.00
2019-02-23T07:59:09.851Z,2564.00
2019-02-23T08:00:09.844Z,2524.00
2019-02-23T08:01:09.836Z,2504.00
2019-02-23T08:02:09.828Z,2512.00
2019-02-23T08:03:09.822Z,2624.00
2019-02-23T08:04:09.812Z,2620.00
2019-02-23T08:05:09.803Z,2656.00
2019-02-23T08:06:09.794Z,2732.00
2019-02-23T08:07:09.787Z,2924.00
2019-02-23T08:08:09.779Z,3028.00
2019-02-23T08:09:09.771Z,3068.00
2019-02-23T08:10:09.765Z,3072.00
2019-02-23T08:11:09.755Z,2768.00
2019-02-23T08:12:09.746Z,2952.00
2019-02-23T08:13:09.737Z,3080.00
2019-02-23T08:14:09.730Z,3128.00
2019-02-23T08:15:09.725Z,3148.00
2019-02-23T08:16:09.714Z,3248.00
2019-02-23T08:17:09.708Z,3352.00
2019-02-23T08:18:09.700Z,3424.00
2019-02-23T08:19:09.692Z,3480.00
2019-02-23T08:20:09.684Z,3536.00
2019-02-23T08:21:09.692Z,3576.00
2019-02-23T08:22:09.669Z,3652.00
2019-02-23T08:23:09.660Z,3708.00
2019-02-23T08:24:09.651Z,3728.00
2019-02-23T08:25:09.643Z,3596.00
2019-02-23T08:26:09.636Z,3796.00
2019-02-23T08:27:09.628Z,3800.00
2019-02-23T08:28:09.621Z,3796.00
2019-02-23T08:29:09.613Z,3848.00
2019-02-23T08:30:09.606Z,3892.00
2019-02-23T08:31:09.598Z,3952.00
2019-02-23T08:32:09.589Z,4048.00
2019-02-23T08:33:09.581Z,4132.00
2019-02-23T08:34:09.574Z,4140.00
2019-02-23T08:35:09.566Z,4184.00
2019-02-23T08:36:09.560Z,4216.00
2019-02-23T08:37:09.552Z,4224.00
2019-02-23T08:38:09.543Z,4380.00
2019-02-23T08:39:09.537Z,4152.00
2019-02-23T08:40:09.529Z,4240.00
2019-02-23T08:41:09.520Z,4364.00
2019-02-23T08:42:09.514Z,4388.00
2019-02-23T08:43:09.507Z,4376.00
2019-02-23T08:44:09.497Z,4368.00
2019-02-23T08:45:09.492Z,4372.00
2019-02-23T08:46:09.483Z,4416.00
2019-02-23T08:47:09.476Z,4200.00
2019-02-23T08:48:09.468Z,4144.00
2019-02-23T08:49:09.460Z,4300.00
2019-02-23T08:50:09.454Z,4648.00
2019-02-23T08:51:09.456Z,4664.00
2019-02-23T08:52:09.438Z,4676.00
2019-02-23T08:53:09.431Z,4696.00
2019-02-23T08:54:09.424Z,4716.00
2019-02-23T08:55:09.418Z,4672.00
2019-02-23T08:56:09.412Z,4748.00
2019-02-23T08:57:09.401Z,4704.00
2019-02-23T08:58:09.394Z,4632.00
2019-02-23T08:59:09.389Z,4548.00
2019-02-23T09:00:09.379Z,4596.00
2019-02-23T09:01:09.375Z,4528.00
2019-02-23T09:02:09.366Z,4460.00
2019-02-23T09:03:09.358Z,4496.00
2019-02-23T09:04:09.350Z,4552.00
2019-02-23T09:05:09.343Z,4564.00
2019-02-23T09:06:09.336Z,4544.00
2019-02-23T09:07:09.330Z,4436.00
2019-02-23T09:08:09.324Z,4488.00
2019-02-23T09:09:09.322Z,4592.00
2019-02-23T09:10:09.310Z,4656.00
2019-02-23T09:11:09.303Z,4836.00
2019-02-23T09:12:09.295Z,4836.00
2019-02-23T09:13:09.289Z,4868.00
2019-02-23T09:14:09.281Z,4772.00
2019-02-23T09:15:09.276Z,4660.00
2019-02-23T09:16:09.268Z,4928.00
2019-02-23T09:17:09.261Z,5024.00
2019-02-23T09:18:09.253Z,5100.00
2019-02-23T09:19:09.245Z,5152.00
2019-02-23T09:20:09.238Z,5136.00
2019-02-23T09:21:09.232Z,5136.00
2019-02-23T09:22:09.224Z,5332.00
2019-02-23T09:23:09.219Z,5348.00
2019-02-23T09:24:09.211Z,5316.00
2019-02-23T09:25:09.204Z,5400.00
2019-02-23T09:26:09.282Z,5448.00
2019-02-23T09:27:09.263Z,5504.00
2019-02-23T09:28:09.184Z,5564.00
2019-02-23T09:29:09.177Z,5600.00
2019-02-23T09:30:09.168Z,5700.00
2019-02-23T09:31:09.163Z,5740.00
2019-02-23T09:32:09.156Z,5748.00
2019-02-23T09:33:09.152Z,5832.00
2019-02-23T09:34:09.144Z,5956.00
2019-02-23T09:35:09.151Z,6120.00
2019-02-23T09:36:09.131Z,6140.00
2019-02-23T09:37:09.122Z,6268.00
2019-02-23T09:38:09.116Z,6344.00
2019-02-23T09:39:09.109Z,6268.00
2019-02-23T09:40:09.103Z,6328.00
2019-02-23T09:41:09.095Z,6388.00
2019-02-23T09:42:09.091Z,6552.00
2019-02-23T09:43:09.084Z,6688.00
2019-02-23T09:44:09.074Z,6944.00
2019-02-23T09:45:09.069Z,7220.00
2019-02-23T09:46:09.064Z,7316.00
2019-02-23T09:47:09.056Z,7520.00
2019-02-23T09:48:09.055Z,7652.00
2019-02-23T09:49:09.044Z,8072.00
2019-02-23T09:50:09.039Z,8620.00
2019-02-23T09:51:09.032Z,9236.00
2019-02-23T09:52:09.026Z,13564.00
2019-02-23T09:53:11.514Z,20448.00
2019-02-23T09:54:09.011Z,30176.00
2019-02-23T09:55:09.006Z,33696.00
2019-02-23T09:56:09.000Z,34080.00
2019-02-23T09:57:08.997Z,29440.00
2019-02-23T09:58:08.989Z,30432.00
2019-02-23T09:59:08.984Z,28960.00
2019-02-23T10:00:08.978Z,28640.00
2019-02-23T10:01:08.972Z,26688.00
2019-02-23T10:02:08.967Z,30656.00
2019-02-23T10:03:08.963Z,31744.00
2019-02-23T10:04:08.957Z,30720.00
2019-02-23T10:05:08.955Z,30688.00
2019-02-23T10:06:08.952Z,31296.00
2019-02-23T10:07:08.950Z,28000.00
2019-02-23T10:08:08.957Z,30048.00
2019-02-23T10:09:08.941Z,35264.00
2019-02-23T10:10:08.938Z,36768.00
2019-02-23T10:11:08.933Z,34656.00
2019-02-23T10:12:08.933Z,34656.00
2019-02-23T10:13:08.928Z,34688.00
2019-02-23T10:14:08.926Z,38720.00
2019-02-23T10:15:08.924Z,40128.00
2019-02-23T10:16:08.923Z,44160.00
2019-02-23T10:17:09.399Z,42176.00
2019-02-23T10:18:08.919Z,44512.00
2019-02-23T10:19:08.917Z,50272.00
2019-02-23T10:20:08.916Z,51552.00
2019-02-23T10:21:08.916Z,53120.00
2019-02-23T10:22:08.914Z,55456.00
2019-02-23T10:23:08.913Z,53632.00
2019-02-23T10:24:08.911Z,53440.00
2019-02-23T10:25:08.914Z,55264.00
2019-02-23T10:26:08.910Z,49856.00
2019-02-23T10:27:08.911Z,47456.00
2019-02-23T10:28:08.909Z,41152.00
2019-02-23T10:29:08.909Z,33984.00
2019-02-23T10:30:08.909Z,32192.00
2019-02-23T10:31:08.910Z,29280.00
2019-02-23T10:32:08.908Z,27520.00
2019-02-23T10:33:08.915Z,26912.00
2019-02-23T10:34:08.909Z,27648.00
2019-02-23T10:35:08.912Z,24672.00
2019-02-23T10:36:08.910Z,21504.00
2019-02-23T10:37:08.911Z,17472.00
2019-02-23T10:38:08.913Z,14672.00
2019-02-23T10:39:08.913Z,12852.00
2019-02-23T10:40:08.912Z,12500.00
2019-02-23T10:41:08.912Z,11920.00
2019-02-23T10:42:08.912Z,11004.00
2019-02-23T10:43:08.913Z,11172.00
2019-02-23T10:44:08.913Z,10400.00
2019-02-23T10:45:08.912Z,10536.00
2019-02-23T10:46:08.910Z,10620.00
2019-02-23T10:47:08.914Z,10700.00
2019-02-23T10:48:08.913Z,10304.00
2019-02-23T10:49:08.911Z,9888.00
2019-02-23T10:50:08.910Z,9672.00
2019-02-23T10:51:08.921Z,9288.00
2019-02-23T10:52:08.908Z,8696.00
2019-02-23T10:53:08.909Z,8636.00
2019-02-23T10:54:08.914Z,8504.00
2019-02-23T10:55:08.908Z,8584.00
2019-02-23T10:56:08.908Z,8520.00
2019-02-23T10:57:08.906Z,8184.00
2019-02-23T10:58:08.905Z,8096.00
2019-02-23T10:59:08.905Z,8396.00
2019-02-23T11:00:08.902Z,8496.00
2019-02-23T11:01:08.905Z,8448.00
2019-02-23T11:02:08.938Z,8580.00
2019-02-23T11:03:08.901Z,7968.00
2019-02-23T11:04:08.901Z,8016.00
2019-02-23T11:05:08.898Z,7672.00
2019-02-23T11:06:08.976Z,7236.00
2019-02-23T11:07:08.897Z,7208.00
2019-02-23T11:08:08.896Z,7232.00
2019-02-23T11:09:08.893Z,7260.00
2019-02-23T11:10:08.891Z,7576.00
2019-02-23T11:11:08.891Z,8060.00
2019-02-23T11:12:08.889Z,8848.00
2019-02-23T11:13:08.888Z,9336.00
2019-02-23T11:14:08.886Z,9192.00
2019-02-23T11:15:08.884Z,9092.00
2019-02-23T11:16:08.882Z,8888.00
2019-02-23T11:17:08.881Z,8452.00
2019-02-23T11:18:08.879Z,7968.00
2019-02-23T11:19:08.877Z,7720.00
2019-02-23T11:20:08.876Z,7112.00
2019-02-23T11:21:08.875Z,6820.00
2019-02-23T11:22:08.875Z,6624.00
2019-02-23T11:23:08.873Z,6752.00
2019-02-23T11:24:08.870Z,6692.00
2019-02-23T11:25:08.867Z,6256.00
2019-02-23T11:26:08.866Z,6232.00
2019-02-23T11:27:08.868Z,6488.00
2019-02-23T11:28:08.861Z,6724.00
2019-02-23T11:29:08.861Z,6856.00
2019-02-23T11:30:08.860Z,7328.00
2019-02-23T11:31:08.857Z,7404.00
2019-02-23T11:32:08.867Z,7420.00
2019-02-23T11:33:08.852Z,7228.00
2019-02-23T11:34:08.852Z,7332.00
2019-02-23T11:35:08.849Z,7768.00
2019-02-23T11:36:08.846Z,7356.00
2019-02-23T11:37:08.844Z,6804.00
2019-02-23T11:38:08.843Z,6756.00
2019-02-23T11:39:08.840Z,6880.00
2019-02-23T11:40:08.844Z,6852.00
2019-02-23T11:41:08.835Z,7024.00
2019-02-23T11:42:08.835Z,7456.00
2019-02-23T11:43:08.837Z,7644.00
2019-02-23T11:44:08.832Z,7692.00
2019-02-23T11:45:08.825Z,7720.00
2019-02-23T11:46:08.823Z,7660.00
2019-02-23T11:47:08.820Z,7204.00
2019-02-23T11:48:08.818Z,6756.00
2019-02-23T11:49:08.816Z,6828.00
2019-02-23T11:50:08.812Z,6524.00
2019-02-23T11:51:08.813Z,6452.00
2019-02-23T11:52:08.806Z,6604.00
2019-02-23T11:53:08.806Z,6840.00
2019-02-23T11:54:08.804Z,6904.00
2019-02-23T11:55:08.803Z,7164.00
2019-02-23T11:56:08.797Z,6708.00
2019-02-23T11:57:08.795Z,5888.00
2019-02-23T11:58:08.792Z,6020.00
2019-02-23T11:59:08.788Z,6148.00
2019-02-23T12:00:08.789Z,6044.00
2019-02-23T12:01:08.783Z,6156.00
2019-02-23T12:02:08.782Z,6364.00
2019-02-23T12:03:08.778Z,6776.00
2019-02-23T12:04:08.773Z,7184.00
2019-02-23T12:05:08.774Z,7020.00
2019-02-23T12:06:08.768Z,7128.00
2019-02-23T12:07:08.765Z,7200.00
2019-02-23T12:08:08.762Z,6972.00
2019-02-23T12:09:08.825Z,6556.00
2019-02-23T12:10:08.757Z,6176.00
2019-02-23T12:11:08.755Z,5808.00
2019-02-23T12:12:08.748Z,5736.00
2019-02-23T12:13:08.747Z,5680.00
2019-02-23T12:14:08.746Z,5704.00
2019-02-23T12:15:08.743Z,5524.00
2019-02-23T12:16:08.738Z,5332.00
2019-02-23T12:17:08.736Z,5236.00
2019-02-23T12:18:08.732Z,5400.00
2019-02-23T12:19:08.731Z,5264.00
2019-02-23T12:20:08.725Z,5208.00
2019-02-23T12:21:08.724Z,5076.00
2019-02-23T12:22:12.320Z,5112.00
2019-02-23T12:23:08.717Z,5252.00
2019-02-23T12:24:08.714Z,5316.00
2019-02-23T12:25:08.711Z,5200.00
2019-02-23T12:26:08.708Z,5232.00
2019-02-23T12:27:08.706Z,5432.00
2019-02-23T12:28:08.701Z,5416.00
2019-02-23T12:29:08.699Z,5496.00
2019-02-23T12:30:08.694Z,5512.00
2019-02-23T12:31:08.692Z,5412.00
2019-02-23T12:32:08.689Z,5676.00
2019-02-23T12:33:08.685Z,5748.00
2019-02-23T12:34:08.683Z,5748.00
2019-02-23T12:35:08.678Z,5764.00
2019-02-23T12:36:08.675Z,5680.00
2019-02-23T12:37:08.671Z,5656.00
2019-02-23T12:38:08.667Z,5676.00
2019-02-23T12:39:08.665Z,5664.00
2019-02-23T12:40:08.659Z,5664.00